sensor_id;sensor_type;location;lat;lon;timestamp;P1;durP1;ratioP1;P2;durP2;ratioP2
14847;SDS011;7516;43.570;1.448;2024-03-23T00:51:46;9.32;;;5.93;;
14847;SDS011;7516;43.570;1.448;2024-03-23T00:54:13;8.45;;;6.60;;
14847;SDS011;7516;43.570;1.448;2024-03-23T00:56:40;6.35;;;5.68;;
14847;SDS011;7516;43.570;1.448;2024-03-23T00:59:07;10.82;;;6.20;;
14847;SDS011;7516;43.570;1.448;2024-03-23T01:01:33;10.18;;;6.25;;
14847;SDS011;7516;43.570;1.448;2024-03-23T01:04:01;8.68;;;6.40;;
14847;SDS011;7516;43.570;1.448;2024-03-23T01:06:28;11.00;;;6.70;;
14847;SDS011;7516;43.570;1.448;2024-03-23T01:08:58;8.60;;;5.70;;
14847;SDS011;7516;43.570;1.448;2024-03-23T01:11:24;9.43;;;6.40;;
14847;SDS011;7516;43.570;1.448;2024-03-23T01:13:53;8.50;;;5.60;;
14847;SDS011;7516;43.570;1.448;2024-03-23T01:16:21;8.10;;;6.32;;
14847;SDS011;7516;43.570;1.448;2024-03-23T01:18:49;8.93;;;6.57;;
14847;SDS011;7516;43.570;1.448;2024-03-23T01:21:15;8.67;;;6.43;;
14847;SDS011;7516;43.570;1.448;2024-03-23T01:23:43;8.98;;;6.22;;
14847;SDS011;7516;43.570;1.448;2024-03-23T01:26:10;11.00;;;5.93;;
14847;SDS011;7516;43.570;1.448;2024-03-23T01:28:38;9.57;;;6.80;;
14847;SDS011;7516;43.570;1.448;2024-03-23T01:31:05;9.40;;;6.60;;
14847;SDS011;7516;43.570;1.448;2024-03-23T01:33:32;8.73;;;6.68;;
14847;SDS011;7516;43.570;1.448;2024-03-23T01:35:59;10.90;;;6.25;;
14847;SDS011;7516;43.570;1.448;2024-03-23T01:38:26;9.75;;;7.05;;
14847;SDS011;7516;43.570;1.448;2024-03-23T01:40:56;12.70;;;7.00;;
14847;SDS011;7516;43.570;1.448;2024-03-23T01:43:25;10.30;;;8.10;;
14847;SDS011;7516;43.570;1.448;2024-03-23T01:45:51;11.75;;;8.07;;
14847;SDS011;7516;43.570;1.448;2024-03-23T01:48:20;10.82;;;7.20;;
14847;SDS011;7516;43.570;1.448;2024-03-23T01:50:46;10.50;;;6.77;;
14847;SDS011;7516;43.570;1.448;2024-03-23T01:53:14;9.52;;;7.63;;
14847;SDS011;7516;43.570;1.448;2024-03-23T01:55:42;12.15;;;7.32;;
14847;SDS011;7516;43.570;1.448;2024-03-23T01:58:10;9.25;;;5.80;;
14847;SDS011;7516;43.570;1.448;2024-03-23T02:00:37;7.70;;;5.93;;
14847;SDS011;7516;43.570;1.448;2024-03-23T02:05:50;7.70;;;6.10;;
14847;SDS011;7516;43.570;1.448;2024-03-23T02:08:18;9.23;;;5.67;;
14847;SDS011;7516;43.570;1.448;2024-03-23T02:10:46;8.93;;;5.43;;
14847;SDS011;7516;43.570;1.448;2024-03-23T02:13:14;10.65;;;5.93;;
14847;SDS011;7516;43.570;1.448;2024-03-23T02:15:43;9.83;;;6.03;;
14847;SDS011;7516;43.570;1.448;2024-03-23T02:18:11;6.63;;;5.37;;
14847;SDS011;7516;43.570;1.448;2024-03-23T02:20:37;9.07;;;5.20;;
14847;SDS011;7516;43.570;1.448;2024-03-23T02:23:10;7.60;;;4.80;;
14847;SDS011;7516;43.570;1.448;2024-03-23T02:25:38;6.80;;;4.67;;
14847;SDS011;7516;43.570;1.448;2024-03-23T02:28:06;6.77;;;4.43;;
14847;SDS011;7516;43.570;1.448;2024-03-23T02:30:33;6.83;;;4.93;;
14847;SDS011;7516;43.570;1.448;2024-03-23T02:33:00;7.97;;;4.50;;
14847;SDS011;7516;43.570;1.448;2024-03-23T02:35:27;5.43;;;4.53;;
14847;SDS011;7516;43.570;1.448;2024-03-23T02:37:55;6.50;;;4.20;;
14847;SDS011;7516;43.570;1.448;2024-03-23T02:40:23;7.27;;;4.47;;
14847;SDS011;7516;43.570;1.448;2024-03-23T02:42:51;6.90;;;4.60;;
14847;SDS011;7516;43.570;1.448;2024-03-23T02:45:18;6.60;;;4.10;;
14847;SDS011;7516;43.570;1.448;2024-03-23T02:47:45;5.00;;;4.07;;
14847;SDS011;7516;43.570;1.448;2024-03-23T02:50:12;5.37;;;3.70;;
14847;SDS011;7516;43.570;1.448;2024-03-23T02:52:40;6.40;;;4.80;;
14847;SDS011;7516;43.570;1.448;2024-03-23T02:55:07;5.80;;;3.93;;
14847;SDS011;7516;43.570;1.448;2024-03-23T02:57:36;5.37;;;3.40;;
14847;SDS011;7516;43.570;1.448;2024-03-23T03:00:03;5.70;;;2.90;;
14847;SDS011;7516;43.570;1.448;2024-03-23T03:02:32;5.37;;;3.07;;
14847;SDS011;7516;43.570;1.448;2024-03-23T03:04:58;4.83;;;3.00;;
14847;SDS011;7516;43.570;1.448;2024-03-23T03:07:26;5.03;;;3.20;;
14847;SDS011;7516;43.570;1.448;2024-03-23T03:09:52;5.60;;;2.80;;
14847;SDS011;7516;43.570;1.448;2024-03-23T03:12:20;4.30;;;3.07;;
14847;SDS011;7516;43.570;1.448;2024-03-23T03:14:48;5.97;;;3.20;;
14847;SDS011;7516;43.570;1.448;2024-03-23T03:17:15;5.07;;;3.47;;
14847;SDS011;7516;43.570;1.448;2024-03-23T03:19:42;4.00;;;2.83;;
14847;SDS011;7516;43.570;1.448;2024-03-23T03:22:10;4.67;;;3.27;;
14847;SDS011;7516;43.570;1.448;2024-03-23T03:24:37;6.93;;;2.90;;
14847;SDS011;7516;43.570;1.448;2024-03-23T03:27:04;6.43;;;3.00;;
14847;SDS011;7516;43.570;1.448;2024-03-23T03:29:32;5.77;;;3.20;;
14847;SDS011;7516;43.570;1.448;2024-03-23T03:32:02;4.53;;;2.87;;
14847;SDS011;7516;43.570;1.448;2024-03-23T03:34:29;5.17;;;2.57;;
14847;SDS011;7516;43.570;1.448;2024-03-23T03:36:56;6.93;;;2.47;;
14847;SDS011;7516;43.570;1.448;2024-03-23T03:39:23;7.03;;;2.40;;
14847;SDS011;7516;43.570;1.448;2024-03-23T03:41:51;4.33;;;2.30;;
14847;SDS011;7516;43.570;1.448;2024-03-23T03:44:17;7.53;;;2.60;;
14847;SDS011;7516;43.570;1.448;2024-03-23T03:46:45;7.13;;;2.30;;
14847;SDS011;7516;43.570;1.448;2024-03-23T03:49:13;5.33;;;2.13;;
14847;SDS011;7516;43.570;1.448;2024-03-23T03:51:40;5.47;;;2.03;;
14847;SDS011;7516;43.570;1.448;2024-03-23T03:54:07;6.27;;;2.40;;
14847;SDS011;7516;43.570;1.448;2024-03-23T03:56:34;5.27;;;2.03;;
14847;SDS011;7516;43.570;1.448;2024-03-23T03:59:00;3.57;;;1.73;;
14847;SDS011;7516;43.570;1.448;2024-03-23T04:01:28;4.67;;;2.10;;
14847;SDS011;7516;43.570;1.448;2024-03-23T04:03:55;7.70;;;2.40;;
14847;SDS011;7516;43.570;1.448;2024-03-23T04:06:23;2.87;;;1.90;;
14847;SDS011;7516;43.570;1.448;2024-03-23T04:08:50;6.53;;;2.20;;
14847;SDS011;7516;43.570;1.448;2024-03-23T04:11:18;4.40;;;2.10;;
14847;SDS011;7516;43.570;1.448;2024-03-23T04:13:44;4.50;;;1.90;;
14847;SDS011;7516;43.570;1.448;2024-03-23T04:16:12;5.03;;;2.03;;
14847;SDS011;7516;43.570;1.448;2024-03-23T04:18:49;4.27;;;2.13;;
14847;SDS011;7516;43.570;1.448;2024-03-23T04:21:17;5.80;;;2.17;;
14847;SDS011;7516;43.570;1.448;2024-03-23T04:23:44;5.10;;;1.90;;
14847;SDS011;7516;43.570;1.448;2024-03-23T04:26:12;6.60;;;2.33;;
14847;SDS011;7516;43.570;1.448;2024-03-23T04:28:39;5.30;;;2.40;;
14847;SDS011;7516;43.570;1.448;2024-03-23T04:31:06;10.07;;;2.30;;
14847;SDS011;7516;43.570;1.448;2024-03-23T04:33:33;5.03;;;2.17;;
14847;SDS011;7516;43.570;1.448;2024-03-23T04:36:00;4.83;;;2.20;;
14847;SDS011;7516;43.570;1.448;2024-03-23T04:38:27;6.07;;;2.30;;
14847;SDS011;7516;43.570;1.448;2024-03-23T04:40:57;7.23;;;2.10;;
14847;SDS011;7516;43.570;1.448;2024-03-23T04:43:27;4.03;;;2.07;;
14847;SDS011;7516;43.570;1.448;2024-03-23T04:45:54;5.67;;;1.93;;
14847;SDS011;7516;43.570;1.448;2024-03-23T04:48:22;6.93;;;2.20;;
14847;SDS011;7516;43.570;1.448;2024-03-23T04:50:54;5.03;;;2.13;;
14847;SDS011;7516;43.570;1.448;2024-03-23T04:53:23;4.27;;;1.70;;
14847;SDS011;7516;43.570;1.448;2024-03-23T04:55:53;5.27;;;2.10;;
14847;SDS011;7516;43.570;1.448;2024-03-23T04:58:23;4.00;;;1.80;;
14847;SDS011;7516;43.570;1.448;2024-03-23T05:00:53;5.80;;;1.80;;
14847;SDS011;7516;43.570;1.448;2024-03-23T05:03:21;3.77;;;1.70;;
14847;SDS011;7516;43.570;1.448;2024-03-23T05:05:47;3.77;;;1.60;;
14847;SDS011;7516;43.570;1.448;2024-03-23T05:08:15;3.73;;;1.80;;
14847;SDS011;7516;43.570;1.448;2024-03-23T05:10:41;3.83;;;1.67;;
14847;SDS011;7516;43.570;1.448;2024-03-23T05:13:09;3.77;;;1.90;;
14847;SDS011;7516;43.570;1.448;2024-03-23T05:15:37;5.70;;;2.10;;
14847;SDS011;7516;43.570;1.448;2024-03-23T05:18:05;3.53;;;1.90;;
14847;SDS011;7516;43.570;1.448;2024-03-23T05:20:32;3.33;;;1.60;;
14847;SDS011;7516;43.570;1.448;2024-03-23T05:22:59;5.23;;;1.97;;
14847;SDS011;7516;43.570;1.448;2024-03-23T05:25:26;6.57;;;2.73;;
14847;SDS011;7516;43.570;1.448;2024-03-23T05:27:53;5.57;;;1.80;;
14847;SDS011;7516;43.570;1.448;2024-03-23T05:30:20;4.47;;;1.80;;
14847;SDS011;7516;43.570;1.448;2024-03-23T05:32:50;5.77;;;1.93;;
14847;SDS011;7516;43.570;1.448;2024-03-23T05:35:16;4.00;;;1.50;;
14847;SDS011;7516;43.570;1.448;2024-03-23T05:37:44;4.10;;;1.80;;
14847;SDS011;7516;43.570;1.448;2024-03-23T05:40:11;6.37;;;1.77;;
14847;SDS011;7516;43.570;1.448;2024-03-23T05:42:40;4.27;;;1.70;;
14847;SDS011;7516;43.570;1.448;2024-03-23T05:45:07;5.33;;;1.80;;
14847;SDS011;7516;43.570;1.448;2024-03-23T05:47:36;4.00;;;1.80;;
14847;SDS011;7516;43.570;1.448;2024-03-23T05:50:04;4.43;;;1.57;;
14847;SDS011;7516;43.570;1.448;2024-03-23T05:52:32;2.90;;;1.50;;
14847;SDS011;7516;43.570;1.448;2024-03-23T05:54:58;5.10;;;1.57;;
14847;SDS011;7516;43.570;1.448;2024-03-23T05:57:26;4.30;;;1.80;;
14847;SDS011;7516;43.570;1.448;2024-03-23T05:59:52;6.13;;;1.50;;
14847;SDS011;7516;43.570;1.448;2024-03-23T06:02:20;4.97;;;1.63;;
14847;SDS011;7516;43.570;1.448;2024-03-23T06:04:48;3.60;;;1.50;;
14847;SDS011;7516;43.570;1.448;2024-03-23T06:07:16;5.70;;;1.80;;
14847;SDS011;7516;43.570;1.448;2024-03-23T06:09:44;2.20;;;1.47;;
14847;SDS011;7516;43.570;1.448;2024-03-23T06:12:10;3.93;;;1.40;;
14847;SDS011;7516;43.570;1.448;2024-03-23T06:14:37;4.83;;;1.77;;
14847;SDS011;7516;43.570;1.448;2024-03-23T06:17:04;4.67;;;1.77;;
14847;SDS011;7516;43.570;1.448;2024-03-23T06:19:32;4.23;;;1.50;;
14847;SDS011;7516;43.570;1.448;2024-03-23T06:21:58;3.87;;;1.60;;
14847;SDS011;7516;43.570;1.448;2024-03-23T06:24:27;3.03;;;1.37;;
14847;SDS011;7516;43.570;1.448;2024-03-23T06:26:54;4.77;;;1.50;;
14847;SDS011;7516;43.570;1.448;2024-03-23T06:29:21;3.67;;;1.47;;
14847;SDS011;7516;43.570;1.448;2024-03-23T06:31:52;3.80;;;1.60;;
14847;SDS011;7516;43.570;1.448;2024-03-23T06:34:21;3.10;;;1.40;;
14847;SDS011;7516;43.570;1.448;2024-03-23T06:36:48;3.73;;;1.73;;
14847;SDS011;7516;43.570;1.448;2024-03-23T06:39:16;2.27;;;1.43;;
14847;SDS011;7516;43.570;1.448;2024-03-23T06:41:50;6.30;;;1.60;;
14847;SDS011;7516;43.570;1.448;2024-03-23T06:44:19;4.00;;;1.53;;
14847;SDS011;7516;43.570;1.448;2024-03-23T06:46:46;4.47;;;1.83;;
14847;SDS011;7516;43.570;1.448;2024-03-23T06:49:14;6.10;;;2.07;;
14847;SDS011;7516;43.570;1.448;2024-03-23T06:51:40;3.87;;;1.67;;
14847;SDS011;7516;43.570;1.448;2024-03-23T06:54:08;4.03;;;1.50;;
14847;SDS011;7516;43.570;1.448;2024-03-23T06:56:34;3.43;;;1.50;;
14847;SDS011;7516;43.570;1.448;2024-03-23T06:59:03;5.53;;;1.50;;
14847;SDS011;7516;43.570;1.448;2024-03-23T07:01:30;5.37;;;1.87;;
14847;SDS011;7516;43.570;1.448;2024-03-23T07:03:57;3.57;;;1.47;;
14847;SDS011;7516;43.570;1.448;2024-03-23T07:06:24;2.63;;;1.40;;
14847;SDS011;7516;43.570;1.448;2024-03-23T07:08:52;4.47;;;1.70;;
14847;SDS011;7516;43.570;1.448;2024-03-23T07:11:19;3.33;;;1.43;;
14847;SDS011;7516;43.570;1.448;2024-03-23T07:13:49;3.13;;;1.70;;
14847;SDS011;7516;43.570;1.448;2024-03-23T07:16:17;3.13;;;1.30;;
14847;SDS011;7516;43.570;1.448;2024-03-23T07:18:45;4.23;;;1.67;;
14847;SDS011;7516;43.570;1.448;2024-03-23T07:21:12;2.43;;;1.47;;
14847;SDS011;7516;43.570;1.448;2024-03-23T07:23:41;2.57;;;1.60;;
14847;SDS011;7516;43.570;1.448;2024-03-23T07:26:10;2.57;;;1.70;;
14847;SDS011;7516;43.570;1.448;2024-03-23T07:28:38;6.23;;;1.63;;
14847;SDS011;7516;43.570;1.448;2024-03-23T07:31:09;3.77;;;1.70;;
14847;SDS011;7516;43.570;1.448;2024-03-23T07:33:41;2.43;;;1.17;;
14847;SDS011;7516;43.570;1.448;2024-03-23T07:36:08;3.37;;;1.70;;
14847;SDS011;7516;43.570;1.448;2024-03-23T07:38:36;2.07;;;1.20;;
14847;SDS011;7516;43.570;1.448;2024-03-23T07:41:03;2.93;;;1.30;;
14847;SDS011;7516;43.570;1.448;2024-03-23T07:43:31;2.23;;;1.30;;
14847;SDS011;7516;43.570;1.448;2024-03-23T07:45:58;2.67;;;1.30;;
14847;SDS011;7516;43.570;1.448;2024-03-23T07:48:26;1.93;;;1.03;;
14847;SDS011;7516;43.570;1.448;2024-03-23T07:51:01;1.07;;;0.87;;
14847;SDS011;7516;43.570;1.448;2024-03-23T07:53:29;1.33;;;0.67;;
14847;SDS011;7516;43.570;1.448;2024-03-23T07:55:57;1.00;;;0.40;;
14847;SDS011;7516;43.570;1.448;2024-03-23T07:58:27;1.83;;;0.60;;
14847;SDS011;7516;43.570;1.448;2024-03-23T08:00:54;2.20;;;0.50;;
14847;SDS011;7516;43.570;1.448;2024-03-23T08:03:22;2.00;;;0.50;;
14847;SDS011;7516;43.570;1.448;2024-03-23T08:05:49;2.10;;;0.60;;
14847;SDS011;7516;43.570;1.448;2024-03-23T08:08:18;2.40;;;0.70;;
14847;SDS011;7516;43.570;1.448;2024-03-23T08:10:47;2.37;;;0.60;;
14847;SDS011;7516;43.570;1.448;2024-03-23T08:13:15;3.00;;;1.00;;
14847;SDS011;7516;43.570;1.448;2024-03-23T08:15:42;2.03;;;0.83;;
14847;SDS011;7516;43.570;1.448;2024-03-23T08:18:13;2.83;;;0.90;;
14847;SDS011;7516;43.570;1.448;2024-03-23T08:20:40;3.80;;;0.93;;
14847;SDS011;7516;43.570;1.448;2024-03-23T08:23:08;2.57;;;0.87;;
14847;SDS011;7516;43.570;1.448;2024-03-23T08:25:36;2.90;;;1.33;;
14847;SDS011;7516;43.570;1.448;2024-03-23T08:28:04;6.37;;;1.50;;
14847;SDS011;7516;43.570;1.448;2024-03-23T08:30:30;2.53;;;1.03;;
14847;SDS011;7516;43.570;1.448;2024-03-23T08:32:58;4.63;;;1.07;;
14847;SDS011;7516;43.570;1.448;2024-03-23T08:35:25;6.47;;;1.30;;
14847;SDS011;7516;43.570;1.448;2024-03-23T08:37:52;5.93;;;1.17;;
14847;SDS011;7516;43.570;1.448;2024-03-23T08:40:19;4.27;;;1.23;;
14847;SDS011;7516;43.570;1.448;2024-03-23T08:42:48;5.43;;;1.73;;
14847;SDS011;7516;43.570;1.448;2024-03-23T08:45:15;5.97;;;1.60;;
14847;SDS011;7516;43.570;1.448;2024-03-23T08:47:42;5.87;;;1.47;;
14847;SDS011;7516;43.570;1.448;2024-03-23T08:50:09;3.80;;;1.20;;
14847;SDS011;7516;43.570;1.448;2024-03-23T08:52:36;3.37;;;1.20;;
14847;SDS011;7516;43.570;1.448;2024-03-23T08:55:03;2.93;;;0.93;;
14847;SDS011;7516;43.570;1.448;2024-03-23T08:57:31;4.50;;;1.40;;
14847;SDS011;7516;43.570;1.448;2024-03-23T08:59:59;7.23;;;1.60;;
14847;SDS011;7516;43.570;1.448;2024-03-23T09:02:27;3.93;;;1.47;;
14847;SDS011;7516;43.570;1.448;2024-03-23T09:04:53;7.20;;;2.00;;
14847;SDS011;7516;43.570;1.448;2024-03-23T09:07:21;6.87;;;1.70;;
14847;SDS011;7516;43.570;1.448;2024-03-23T09:09:48;8.67;;;1.80;;
14847;SDS011;7516;43.570;1.448;2024-03-23T09:12:16;7.57;;;1.67;;
14847;SDS011;7516;43.570;1.448;2024-03-23T09:14:42;4.00;;;1.37;;
14847;SDS011;7516;43.570;1.448;2024-03-23T09:17:11;7.03;;;1.63;;
14847;SDS011;7516;43.570;1.448;2024-03-23T09:19:38;5.50;;;1.60;;
14847;SDS011;7516;43.570;1.448;2024-03-23T09:22:06;7.80;;;1.80;;
14847;SDS011;7516;43.570;1.448;2024-03-23T09:24:32;7.53;;;1.80;;
14847;SDS011;7516;43.570;1.448;2024-03-23T09:27:00;6.33;;;1.70;;
14847;SDS011;7516;43.570;1.448;2024-03-23T09:29:26;7.40;;;1.50;;
14847;SDS011;7516;43.570;1.448;2024-03-23T09:31:54;6.87;;;1.50;;
14847;SDS011;7516;43.570;1.448;2024-03-23T09:34:22;7.53;;;1.87;;
14847;SDS011;7516;43.570;1.448;2024-03-23T09:36:50;6.93;;;1.63;;
14847;SDS011;7516;43.570;1.448;2024-03-23T09:39:17;7.13;;;1.80;;
14847;SDS011;7516;43.570;1.448;2024-03-23T09:41:45;5.27;;;1.40;;
14847;SDS011;7516;43.570;1.448;2024-03-23T09:44:11;4.17;;;1.23;;
14847;SDS011;7516;43.570;1.448;2024-03-23T09:46:39;7.47;;;1.80;;
14847;SDS011;7516;43.570;1.448;2024-03-23T09:49:06;5.13;;;1.20;;
14847;SDS011;7516;43.570;1.448;2024-03-23T09:51:36;6.40;;;1.40;;
14847;SDS011;7516;43.570;1.448;2024-03-23T09:54:03;5.70;;;1.87;;
14847;SDS011;7516;43.570;1.448;2024-03-23T09:56:30;6.17;;;1.90;;
14847;SDS011;7516;43.570;1.448;2024-03-23T09:59:00;4.57;;;1.43;;
14847;SDS011;7516;43.570;1.448;2024-03-23T10:01:29;5.27;;;1.43;;
14847;SDS011;7516;43.570;1.448;2024-03-23T10:03:56;5.50;;;1.77;;
14847;SDS011;7516;43.570;1.448;2024-03-23T10:06:23;5.73;;;1.57;;
14847;SDS011;7516;43.570;1.448;2024-03-23T10:08:52;6.00;;;1.50;;
14847;SDS011;7516;43.570;1.448;2024-03-23T10:11:20;6.13;;;1.83;;
14847;SDS011;7516;43.570;1.448;2024-03-23T10:13:47;7.70;;;1.57;;
14847;SDS011;7516;43.570;1.448;2024-03-23T10:16:20;5.90;;;1.60;;
14847;SDS011;7516;43.570;1.448;2024-03-23T10:18:48;4.23;;;1.20;;
14847;SDS011;7516;43.570;1.448;2024-03-23T10:21:16;5.93;;;1.63;;
14847;SDS011;7516;43.570;1.448;2024-03-23T10:23:43;4.53;;;1.20;;
14847;SDS011;7516;43.570;1.448;2024-03-23T10:26:16;4.47;;;1.53;;
14847;SDS011;7516;43.570;1.448;2024-03-23T10:28:51;4.43;;;1.57;;
14847;SDS011;7516;43.570;1.448;2024-03-23T10:31:19;3.67;;;1.27;;
14847;SDS011;7516;43.570;1.448;2024-03-23T10:33:46;3.97;;;1.07;;
14847;SDS011;7516;43.570;1.448;2024-03-23T10:36:14;4.77;;;1.13;;
14847;SDS011;7516;43.570;1.448;2024-03-23T10:38:43;5.10;;;1.33;;
14847;SDS011;7516;43.570;1.448;2024-03-23T10:41:11;4.23;;;1.27;;
14847;SDS011;7516;43.570;1.448;2024-03-23T10:43:39;5.13;;;1.47;;
14847;SDS011;7516;43.570;1.448;2024-03-23T10:46:06;8.50;;;2.00;;
14847;SDS011;7516;43.570;1.448;2024-03-23T10:48:34;5.57;;;1.40;;
14847;SDS011;7516;43.570;1.448;2024-03-23T10:51:01;4.20;;;1.27;;
14847;SDS011;7516;43.570;1.448;2024-03-23T10:53:29;5.93;;;1.30;;
14847;SDS011;7516;43.570;1.448;2024-03-23T10:55:59;3.50;;;1.10;;
14847;SDS011;7516;43.570;1.448;2024-03-23T10:58:27;6.40;;;1.50;;
14847;SDS011;7516;43.570;1.448;2024-03-23T11:00:59;4.37;;;1.20;;
14847;SDS011;7516;43.570;1.448;2024-03-23T11:03:33;3.17;;;1.17;;
14847;SDS011;7516;43.570;1.448;2024-03-23T11:06:02;4.83;;;1.23;;
14847;SDS011;7516;43.570;1.448;2024-03-23T11:08:31;4.03;;;1.30;;
14847;SDS011;7516;43.570;1.448;2024-03-23T11:13:47;4.00;;;1.20;;
14847;SDS011;7516;43.570;1.448;2024-03-23T11:16:16;3.43;;;1.03;;
14847;SDS011;7516;43.570;1.448;2024-03-23T11:18:48;3.37;;;1.07;;
14847;SDS011;7516;43.570;1.448;2024-03-23T11:24:15;5.17;;;1.13;;
14847;SDS011;7516;43.570;1.448;2024-03-23T11:26:42;3.60;;;1.20;;
14847;SDS011;7516;43.570;1.448;2024-03-23T11:29:09;3.17;;;1.00;;
14847;SDS011;7516;43.570;1.448;2024-03-23T11:31:37;4.57;;;1.07;;
14847;SDS011;7516;43.570;1.448;2024-03-23T11:34:11;4.43;;;1.10;;
14847;SDS011;7516;43.570;1.448;2024-03-23T11:36:38;2.70;;;0.80;;
14847;SDS011;7516;43.570;1.448;2024-03-23T11:39:12;4.07;;;1.07;;
14847;SDS011;7516;43.570;1.448;2024-03-23T11:41:47;5.33;;;1.13;;
14847;SDS011;7516;43.570;1.448;2024-03-23T11:44:16;3.03;;;1.03;;
14847;SDS011;7516;43.570;1.448;2024-03-23T11:46:45;5.37;;;1.00;;
14847;SDS011;7516;43.570;1.448;2024-03-23T11:49:22;4.60;;;0.97;;
14847;SDS011;7516;43.570;1.448;2024-03-23T11:51:50;3.20;;;1.07;;
14847;SDS011;7516;43.570;1.448;2024-03-23T11:54:19;3.77;;;1.33;;
14847;SDS011;7516;43.570;1.448;2024-03-23T11:56:56;4.47;;;0.90;;
14847;SDS011;7516;43.570;1.448;2024-03-23T11:59:31;2.77;;;1.00;;
14847;SDS011;7516;43.570;1.448;2024-03-23T12:02:05;3.00;;;0.93;;
14847;SDS011;7516;43.570;1.448;2024-03-23T12:04:33;5.47;;;1.20;;
14847;SDS011;7516;43.570;1.448;2024-03-23T12:07:10;4.00;;;1.20;;
14847;SDS011;7516;43.570;1.448;2024-03-23T12:09:39;1.90;;;0.97;;
14847;SDS011;7516;43.570;1.448;2024-03-23T12:12:07;5.90;;;1.33;;
14847;SDS011;7516;43.570;1.448;2024-03-23T12:14:36;4.83;;;1.00;;
14847;SDS011;7516;43.570;1.448;2024-03-23T12:17:11;4.93;;;1.10;;
14847;SDS011;7516;43.570;1.448;2024-03-23T12:19:40;1.80;;;0.80;;
14847;SDS011;7516;43.570;1.448;2024-03-23T12:22:07;4.10;;;1.13;;
14847;SDS011;7516;43.570;1.448;2024-03-23T12:24:35;2.63;;;1.17;;
14847;SDS011;7516;43.570;1.448;2024-03-23T12:27:02;3.33;;;0.80;;
14847;SDS011;7516;43.570;1.448;2024-03-23T12:29:30;2.90;;;0.80;;
14847;SDS011;7516;43.570;1.448;2024-03-23T12:31:59;3.57;;;0.80;;
14847;SDS011;7516;43.570;1.448;2024-03-23T12:34:28;2.93;;;0.90;;
14847;SDS011;7516;43.570;1.448;2024-03-23T12:36:55;3.07;;;0.90;;
14847;SDS011;7516;43.570;1.448;2024-03-23T12:39:23;2.60;;;0.73;;
14847;SDS011;7516;43.570;1.448;2024-03-23T12:41:49;4.60;;;1.57;;
14847;SDS011;7516;43.570;1.448;2024-03-23T12:44:18;1.33;;;0.50;;
14847;SDS011;7516;43.570;1.448;2024-03-23T12:46:44;2.70;;;0.70;;
14847;SDS011;7516;43.570;1.448;2024-03-23T12:49:12;2.87;;;0.80;;
14847;SDS011;7516;43.570;1.448;2024-03-23T12:51:41;2.73;;;0.60;;
14847;SDS011;7516;43.570;1.448;2024-03-23T12:54:19;2.73;;;1.23;;
14847;SDS011;7516;43.570;1.448;2024-03-23T12:56:45;5.93;;;2.33;;
14847;SDS011;7516;43.570;1.448;2024-03-23T12:59:13;6.20;;;5.20;;
14847;SDS011;7516;43.570;1.448;2024-03-23T13:01:39;5.80;;;3.13;;
14847;SDS011;7516;43.570;1.448;2024-03-23T13:04:07;3.40;;;1.10;;
14847;SDS011;7516;43.570;1.448;2024-03-23T13:06:34;5.10;;;1.83;;
14847;SDS011;7516;43.570;1.448;2024-03-23T13:09:03;5.67;;;1.40;;
14847;SDS011;7516;43.570;1.448;2024-03-23T13:11:31;9.17;;;3.20;;
14847;SDS011;7516;43.570;1.448;2024-03-23T13:13:57;4.20;;;1.27;;
14847;SDS011;7516;43.570;1.448;2024-03-23T13:16:25;2.97;;;1.10;;
14847;SDS011;7516;43.570;1.448;2024-03-23T13:18:51;9.73;;;2.80;;
14847;SDS011;7516;43.570;1.448;2024-03-23T13:21:19;5.60;;;1.77;;
14847;SDS011;7516;43.570;1.448;2024-03-23T13:23:46;5.40;;;1.63;;
14847;SDS011;7516;43.570;1.448;2024-03-23T13:26:16;5.13;;;1.57;;
14847;SDS011;7516;43.570;1.448;2024-03-23T13:28:43;3.33;;;1.10;;
14847;SDS011;7516;43.570;1.448;2024-03-23T13:31:10;2.63;;;1.00;;
14847;SDS011;7516;43.570;1.448;2024-03-23T13:33:37;2.67;;;0.80;;
14847;SDS011;7516;43.570;1.448;2024-03-23T13:36:07;5.13;;;0.97;;
14847;SDS011;7516;43.570;1.448;2024-03-23T13:38:34;4.27;;;1.10;;
14847;SDS011;7516;43.570;1.448;2024-03-23T13:41:01;5.07;;;1.03;;
14847;SDS011;7516;43.570;1.448;2024-03-23T13:43:31;4.90;;;1.30;;
14847;SDS011;7516;43.570;1.448;2024-03-23T13:45:59;3.10;;;0.90;;
14847;SDS011;7516;43.570;1.448;2024-03-23T13:48:25;4.60;;;1.27;;
14847;SDS011;7516;43.570;1.448;2024-03-23T13:50:57;3.93;;;1.10;;
14847;SDS011;7516;43.570;1.448;2024-03-23T13:53:24;4.03;;;1.10;;
14847;SDS011;7516;43.570;1.448;2024-03-23T13:55:51;3.90;;;1.10;;
14847;SDS011;7516;43.570;1.448;2024-03-23T13:58:18;5.33;;;1.20;;
14847;SDS011;7516;43.570;1.448;2024-03-23T14:00:47;2.60;;;1.00;;
14847;SDS011;7516;43.570;1.448;2024-03-23T14:03:14;6.03;;;1.40;;
14847;SDS011;7516;43.570;1.448;2024-03-23T14:05:41;4.67;;;1.03;;
14847;SDS011;7516;43.570;1.448;2024-03-23T14:08:08;3.10;;;1.00;;
14847;SDS011;7516;43.570;1.448;2024-03-23T14:10:39;5.50;;;1.40;;
14847;SDS011;7516;43.570;1.448;2024-03-23T14:13:07;5.60;;;1.67;;
14847;SDS011;7516;43.570;1.448;2024-03-23T14:15:35;4.13;;;1.10;;
14847;SDS011;7516;43.570;1.448;2024-03-23T14:18:03;6.27;;;1.30;;
14847;SDS011;7516;43.570;1.448;2024-03-23T14:20:31;3.10;;;1.00;;
14847;SDS011;7516;43.570;1.448;2024-03-23T14:22:57;6.83;;;1.00;;
14847;SDS011;7516;43.570;1.448;2024-03-23T14:25:25;3.93;;;1.20;;
14847;SDS011;7516;43.570;1.448;2024-03-23T14:27:54;5.70;;;1.20;;
14847;SDS011;7516;43.570;1.448;2024-03-23T14:30:23;6.47;;;1.20;;
14847;SDS011;7516;43.570;1.448;2024-03-23T14:32:49;4.20;;;1.10;;
14847;SDS011;7516;43.570;1.448;2024-03-23T14:35:19;3.23;;;1.00;;
14847;SDS011;7516;43.570;1.448;2024-03-23T14:37:45;4.00;;;1.17;;
14847;SDS011;7516;43.570;1.448;2024-03-23T14:40:13;5.50;;;1.00;;
14847;SDS011;7516;43.570;1.448;2024-03-23T14:42:40;5.03;;;1.40;;
14847;SDS011;7516;43.570;1.448;2024-03-23T14:45:07;3.97;;;1.50;;
14847;SDS011;7516;43.570;1.448;2024-03-23T14:47:36;4.00;;;1.13;;
14847;SDS011;7516;43.570;1.448;2024-03-23T14:50:03;3.37;;;1.10;;
14847;SDS011;7516;43.570;1.448;2024-03-23T14:52:35;5.83;;;1.43;;
14847;SDS011;7516;43.570;1.448;2024-03-23T14:55:01;5.67;;;1.10;;
14847;SDS011;7516;43.570;1.448;2024-03-23T14:57:29;4.67;;;1.40;;
14847;SDS011;7516;43.570;1.448;2024-03-23T14:59:55;3.73;;;1.03;;
14847;SDS011;7516;43.570;1.448;2024-03-23T15:02:23;5.40;;;1.17;;
14847;SDS011;7516;43.570;1.448;2024-03-23T15:04:49;4.50;;;1.30;;
14847;SDS011;7516;43.570;1.448;2024-03-23T15:07:17;3.67;;;0.90;;
14847;SDS011;7516;43.570;1.448;2024-03-23T15:09:45;3.57;;;0.77;;
14847;SDS011;7516;43.570;1.448;2024-03-23T15:12:12;3.70;;;1.10;;
14847;SDS011;7516;43.570;1.448;2024-03-23T15:14:39;4.50;;;1.17;;
14847;SDS011;7516;43.570;1.448;2024-03-23T15:17:06;4.30;;;1.00;;
14847;SDS011;7516;43.570;1.448;2024-03-23T15:19:34;4.80;;;1.30;;
14847;SDS011;7516;43.570;1.448;2024-03-23T15:22:01;5.67;;;1.40;;
14847;SDS011;7516;43.570;1.448;2024-03-23T15:24:28;4.00;;;1.07;;
14847;SDS011;7516;43.570;1.448;2024-03-23T15:26:58;5.23;;;1.37;;
14847;SDS011;7516;43.570;1.448;2024-03-23T15:29:24;4.23;;;1.10;;
14847;SDS011;7516;43.570;1.448;2024-03-23T15:31:52;4.43;;;1.30;;
14847;SDS011;7516;43.570;1.448;2024-03-23T15:34:18;3.93;;;1.00;;
14847;SDS011;7516;43.570;1.448;2024-03-23T15:36:46;5.90;;;1.27;;
14847;SDS011;7516;43.570;1.448;2024-03-23T15:39:14;5.50;;;1.20;;
14847;SDS011;7516;43.570;1.448;2024-03-23T15:41:43;5.83;;;1.10;;
14847;SDS011;7516;43.570;1.448;2024-03-23T15:44:11;4.63;;;1.37;;
14847;SDS011;7516;43.570;1.448;2024-03-23T15:46:39;3.80;;;1.07;;
14847;SDS011;7516;43.570;1.448;2024-03-23T15:49:06;3.40;;;1.00;;
14847;SDS011;7516;43.570;1.448;2024-03-23T15:51:34;4.87;;;1.37;;
14847;SDS011;7516;43.570;1.448;2024-03-23T15:54:02;5.63;;;1.03;;
14847;SDS011;7516;43.570;1.448;2024-03-23T15:56:29;3.43;;;1.10;;
14847;SDS011;7516;43.570;1.448;2024-03-23T15:58:56;4.03;;;1.20;;
14847;SDS011;7516;43.570;1.448;2024-03-23T16:01:31;2.37;;;1.30;;
14847;SDS011;7516;43.570;1.448;2024-03-23T16:03:59;4.97;;;1.30;;